createdAt,value
2023-04-23T00:00:18.557Z,11.91
2023-04-23T00:01:18.552Z,11.91
2023-04-23T00:02:18.667Z,11.79
2023-04-23T00:03:18.609Z,11.79
2023-04-23T00:04:18.710Z,11.80
2023-04-23T00:05:18.509Z,11.83
2023-04-23T00:06:18.509Z,11.75
2023-04-23T00:07:18.453Z,11.78
2023-04-23T00:08:19.125Z,11.80
2023-04-23T00:09:18.426Z,11.73
2023-04-23T00:10:18.443Z,11.82
2023-04-23T00:11:18.414Z,11.73
2023-04-23T00:12:18.395Z,11.75
2023-04-23T00:13:18.376Z,11.85
2023-04-23T00:14:18.345Z,11.78
2023-04-23T00:15:18.334Z,11.73
2023-04-23T00:16:18.357Z,11.76
2023-04-23T00:17:18.305Z,11.69
2023-04-23T00:18:18.279Z,11.70
2023-04-23T00:19:18.272Z,11.65
2023-04-23T00:20:18.250Z,11.70
2023-04-23T00:21:18.266Z,11.65
2023-04-23T00:22:18.258Z,11.70
2023-04-23T00:23:18.222Z,11.62
2023-04-23T00:24:18.192Z,11.58
2023-04-23T00:25:18.189Z,11.60
2023-04-23T00:26:18.161Z,11.52
2023-04-23T00:27:18.170Z,11.58
2023-04-23T00:28:19.201Z,11.61
2023-04-23T00:29:18.117Z,11.57
2023-04-23T00:30:18.103Z,11.51
2023-04-23T00:31:18.143Z,11.51
2023-04-23T00:32:18.203Z,11.43
2023-04-23T00:33:18.081Z,11.58
2023-04-23T00:34:18.068Z,11.58
2023-04-23T00:35:18.041Z,11.49
2023-04-23T00:36:18.012Z,11.47
2023-04-23T00:37:18.001Z,11.52
2023-04-23T00:38:18.024Z,11.46
2023-04-23T00:39:17.988Z,11.49
2023-04-23T00:40:17.964Z,11.43
2023-04-23T00:41:17.947Z,11.42
2023-04-23T00:42:17.921Z,11.51
2023-04-23T00:43:17.909Z,11.49
2023-04-23T00:44:17.939Z,11.51
2023-04-23T00:45:17.887Z,11.40
2023-04-23T00:46:18.085Z,11.39
2023-04-23T00:47:17.864Z,11.36
2023-04-23T00:48:17.834Z,11.32
2023-04-23T00:49:17.846Z,11.32
2023-04-23T00:50:17.804Z,11.32
2023-04-23T00:51:17.789Z,11.15
2023-04-23T00:52:17.777Z,11.06
2023-04-23T00:53:17.763Z,11.07
2023-04-23T00:54:17.802Z,11.11
2023-04-23T00:55:17.749Z,11.00
2023-04-23T00:56:17.719Z,11.02
2023-04-23T00:57:17.736Z,10.99
2023-04-23T00:58:17.721Z,10.91
2023-04-23T00:59:17.672Z,10.91
2023-04-23T01:00:17.650Z,10.89
2023-04-23T01:01:17.709Z,10.94
2023-04-23T01:02:17.703Z,10.86
2023-04-23T01:03:17.787Z,10.91
2023-04-23T01:04:17.801Z,10.92
2023-04-23T01:05:17.577Z,10.88
2023-04-23T01:06:17.556Z,10.82
2023-04-23T01:07:17.564Z,10.86
2023-04-23T01:08:17.527Z,10.86
2023-04-23T01:09:17.524Z,10.81
2023-04-23T01:10:17.536Z,10.84
2023-04-23T01:11:17.576Z,10.79
2023-04-23T01:12:17.473Z,10.88
2023-04-23T01:13:17.636Z,10.84
2023-04-23T01:14:17.438Z,10.84
2023-04-23T01:15:17.466Z,10.85
2023-04-23T01:16:17.552Z,10.88
2023-04-23T01:17:17.411Z,10.85
2023-04-23T01:18:17.445Z,10.73
2023-04-23T01:19:17.520Z,10.74
2023-04-23T01:20:17.460Z,10.73
2023-04-23T01:21:17.327Z,10.73
2023-04-23T01:22:17.331Z,10.82
2023-04-23T01:23:17.301Z,10.76
2023-04-23T01:24:17.290Z,10.82
2023-04-23T01:25:17.269Z,10.78
2023-04-23T01:26:17.263Z,10.71
2023-04-23T01:27:17.273Z,10.74
2023-04-23T01:28:17.225Z,10.73
2023-04-23T01:29:17.208Z,10.66
2023-04-23T01:30:17.197Z,10.71
2023-04-23T01:31:17.249Z,10.81
2023-04-23T01:32:17.162Z,10.73
2023-04-23T01:33:17.144Z,10.73
2023-04-23T01:34:17.130Z,10.63
2023-04-23T01:35:17.112Z,10.67
2023-04-23T01:36:17.107Z,10.67
2023-04-23T01:37:17.085Z,10.68
2023-04-23T01:38:17.079Z,10.63
2023-04-23T01:39:17.061Z,10.66
2023-04-23T01:40:17.031Z,10.64
2023-04-23T01:41:17.053Z,10.67
2023-04-23T01:42:17.035Z,10.74
2023-04-23T01:43:17.000Z,10.67
2023-04-23T01:44:16.989Z,10.63
2023-04-23T01:45:16.961Z,10.61
2023-04-23T01:46:16.986Z,10.61
2023-04-23T01:47:16.932Z,10.67
2023-04-23T01:48:16.906Z,10.67
2023-04-23T01:49:16.905Z,10.63
2023-04-23T01:50:16.883Z,10.63
2023-04-23T01:51:16.917Z,10.60
2023-04-23T01:52:16.849Z,10.67
2023-04-23T01:53:16.831Z,10.64
2023-04-23T01:54:16.816Z,10.61
2023-04-23T01:55:16.807Z,10.60
2023-04-23T01:56:16.791Z,10.60
2023-04-23T01:57:16.804Z,10.52
2023-04-23T01:58:16.752Z,10.47
2023-04-23T01:59:16.742Z,10.56
2023-04-23T02:00:16.725Z,10.55
2023-04-23T02:01:16.733Z,10.48
2023-04-23T02:02:16.729Z,10.53
2023-04-23T02:03:16.839Z,10.51
2023-04-23T02:04:16.775Z,10.51
2023-04-23T02:05:16.897Z,10.47
2023-04-23T02:06:16.651Z,10.42
2023-04-23T02:07:16.638Z,10.33
2023-04-23T02:08:16.596Z,10.42
2023-04-23T02:09:16.610Z,10.34
2023-04-23T02:10:16.565Z,10.32
2023-04-23T02:11:16.553Z,10.34
2023-04-23T02:12:16.571Z,10.30
2023-04-23T02:13:16.524Z,10.32
2023-04-23T02:14:16.500Z,10.30
2023-04-23T02:15:16.526Z,10.27
2023-04-23T02:16:16.538Z,10.30
2023-04-23T02:17:16.482Z,10.30
2023-04-23T02:18:16.442Z,10.30
2023-04-23T02:19:16.420Z,10.25
2023-04-23T02:20:16.408Z,10.20
2023-04-23T02:21:16.414Z,10.09
2023-04-23T02:22:16.402Z,10.09
2023-04-23T02:23:16.360Z,10.09
2023-04-23T02:24:37.352Z,10.08
2023-04-23T02:25:16.328Z,10.09
2023-04-23T02:26:16.311Z,10.02
2023-04-23T02:27:16.336Z,10.05
2023-04-23T02:28:16.285Z,10.05
2023-04-23T02:29:16.267Z,10.09
2023-04-23T02:30:16.266Z,9.99
2023-04-23T02:31:16.261Z,10.09
2023-04-23T02:32:16.243Z,10.09
2023-04-23T02:33:16.281Z,9.99
2023-04-23T02:34:16.185Z,10.02
2023-04-23T02:35:16.174Z,9.96
2023-04-23T02:36:16.169Z,10.02
2023-04-23T02:37:16.153Z,9.96
2023-04-23T02:38:16.121Z,9.99
2023-04-23T02:39:16.175Z,10.01
2023-04-23T02:40:16.108Z,10.01
2023-04-23T02:41:16.090Z,9.90
2023-04-23T02:42:16.098Z,9.94
2023-04-23T02:43:16.135Z,9.97
2023-04-23T02:44:16.025Z,9.91
2023-04-23T02:45:16.046Z,9.93
2023-04-23T02:46:16.038Z,9.96
2023-04-23T02:47:15.980Z,9.97
2023-04-23T02:48:16.035Z,9.93
2023-04-23T02:49:15.948Z,9.93
2023-04-23T02:50:15.977Z,9.90
2023-04-23T02:51:15.920Z,9.83
2023-04-23T02:52:15.895Z,9.81
2023-04-23T02:53:15.883Z,9.86
2023-04-23T02:54:15.875Z,9.84
2023-04-23T02:55:15.853Z,9.89
2023-04-23T02:56:15.837Z,9.79
2023-04-23T02:57:15.816Z,9.84
2023-04-23T02:58:15.800Z,9.84
2023-04-23T02:59:15.787Z,9.83
2023-04-23T03:00:15.826Z,9.86
2023-04-23T03:01:15.827Z,9.87
2023-04-23T03:02:15.796Z,9.84
2023-04-23T03:03:15.987Z,9.78
2023-04-23T03:04:15.762Z,9.72
2023-04-23T03:05:15.706Z,9.71
2023-04-23T03:06:15.729Z,9.76
2023-04-23T03:07:15.661Z,9.72
2023-04-23T03:08:15.667Z,9.64
2023-04-23T03:09:15.656Z,9.61
2023-04-23T03:10:15.606Z,9.71
2023-04-23T03:11:15.590Z,9.78
2023-04-23T03:12:15.592Z,9.71
2023-04-23T03:13:15.579Z,9.71
2023-04-23T03:14:15.565Z,9.75
2023-04-23T03:15:15.523Z,9.68
2023-04-23T03:16:15.547Z,9.61
2023-04-23T03:17:15.499Z,9.65
2023-04-23T03:18:15.505Z,9.74
2023-04-23T03:19:15.539Z,9.71
2023-04-23T03:20:15.453Z,9.71
2023-04-23T03:21:15.436Z,9.64
2023-04-23T03:22:15.468Z,9.64
2023-04-23T03:23:15.472Z,9.60
2023-04-23T03:24:15.381Z,9.64
2023-04-23T03:25:15.368Z,9.65
2023-04-23T03:26:15.361Z,9.58
2023-04-23T03:27:15.333Z,9.64
2023-04-23T03:28:15.362Z,9.61
2023-04-23T03:29:15.314Z,9.58
2023-04-23T03:30:15.287Z,9.65
2023-04-23T03:31:15.315Z,9.66
2023-04-23T03:32:15.262Z,9.72
2023-04-23T03:33:15.293Z,9.64
2023-04-23T03:34:15.216Z,9.64
2023-04-23T03:35:15.213Z,9.64
2023-04-23T03:36:15.186Z,9.61
2023-04-23T03:37:15.174Z,9.69
2023-04-23T03:38:15.207Z,9.60
2023-04-23T03:39:15.146Z,9.66
2023-04-23T03:40:15.122Z,9.64
2023-04-23T03:41:15.162Z,9.57
2023-04-23T03:42:15.089Z,9.61
2023-04-23T03:43:15.101Z,9.54
2023-04-23T03:44:15.057Z,9.58
2023-04-23T03:45:15.052Z,9.56
2023-04-23T03:46:15.070Z,9.56
2023-04-23T03:47:15.010Z,9.60
2023-04-23T03:48:15.062Z,9.56
2023-04-23T03:49:14.978Z,9.57
2023-04-23T03:50:14.967Z,9.61
2023-04-23T03:51:14.955Z,9.65
2023-04-23T03:52:14.927Z,9.60
2023-04-23T03:53:14.962Z,9.65
2023-04-23T03:54:14.901Z,9.64
2023-04-23T03:55:14.883Z,9.68
2023-04-23T03:56:14.875Z,9.66
2023-04-23T03:57:14.850Z,9.68
2023-04-23T03:58:14.831Z,9.74
2023-04-23T03:59:14.864Z,9.69
2023-04-23T04:00:14.801Z,9.68
2023-04-23T04:01:14.789Z,9.65
2023-04-23T04:02:14.886Z,9.74
2023-04-23T04:03:14.908Z,9.72
2023-04-23T04:04:15.038Z,9.71
2023-04-23T04:05:14.867Z,9.76
2023-04-23T04:06:14.704Z,9.71
2023-04-23T04:07:14.719Z,9.69
2023-04-23T04:08:14.672Z,9.71
2023-04-23T04:09:14.673Z,9.58
2023-04-23T04:10:14.672Z,9.78
2023-04-23T04:11:14.644Z,9.78
2023-04-23T04:12:14.612Z,9.74
2023-04-23T04:13:14.594Z,9.75
2023-04-23T04:14:14.585Z,9.72
2023-04-23T04:15:14.603Z,9.71
2023-04-23T04:16:14.585Z,9.69
2023-04-23T04:17:14.532Z,9.68
2023-04-23T04:18:14.518Z,9.74
2023-04-23T04:19:14.520Z,9.74
2023-04-23T04:20:14.521Z,9.69
2023-04-23T04:21:14.467Z,9.74
2023-04-23T04:22:14.452Z,9.74
2023-04-23T04:23:14.461Z,9.71
2023-04-23T04:24:14.469Z,9.69
2023-04-23T04:25:14.412Z,9.74
2023-04-23T04:26:14.385Z,9.72
2023-04-23T04:27:14.371Z,9.72
2023-04-23T04:28:14.361Z,9.66
2023-04-23T04:29:14.341Z,9.71
2023-04-23T04:30:14.379Z,9.75
2023-04-23T04:31:14.364Z,9.75
2023-04-23T04:32:14.314Z,9.71
2023-04-23T04:33:14.278Z,9.71
2023-04-23T04:34:14.257Z,9.69
2023-04-23T04:35:14.248Z,9.68
2023-04-23T04:36:14.235Z,9.72
2023-04-23T04:37:14.210Z,9.69
2023-04-23T04:38:14.196Z,9.86
2023-04-23T04:39:14.189Z,9.89
2023-04-23T04:40:14.195Z,9.86
2023-04-23T04:41:14.171Z,9.79
2023-04-23T04:42:14.146Z,9.72
2023-04-23T04:43:14.115Z,9.79
2023-04-23T04:44:14.100Z,9.84
2023-04-23T04:45:14.134Z,9.83
2023-04-23T04:46:14.086Z,9.91
2023-04-23T04:47:14.053Z,9.86
2023-04-23T04:48:14.040Z,9.90
2023-04-23T04:49:14.043Z,9.94
2023-04-23T04:50:14.006Z,9.97
2023-04-23T04:51:14.046Z,9.91
2023-04-23T04:52:13.967Z,9.94
2023-04-23T04:53:13.957Z,10.01
2023-04-23T04:54:13.954Z,10.01
2023-04-23T04:55:13.930Z,9.99
2023-04-23T04:56:13.910Z,10.05
2023-04-23T04:57:13.961Z,9.99
2023-04-23T04:58:13.895Z,9.99
2023-04-23T04:59:13.864Z,10.02
2023-04-23T05:00:13.841Z,10.05
2023-04-23T05:01:13.876Z,10.01
2023-04-23T05:02:13.969Z,9.94
2023-04-23T05:03:14.610Z,9.94
2023-04-23T05:04:13.898Z,9.94
2023-04-23T05:05:13.762Z,9.91
2023-04-23T05:06:13.747Z,9.96
2023-04-23T05:07:13.756Z,9.93
2023-04-23T05:08:13.753Z,9.93
2023-04-23T05:09:13.700Z,9.93
2023-04-23T05:10:13.684Z,9.94
2023-04-23T05:11:13.681Z,9.93
2023-04-23T05:12:13.697Z,9.84
2023-04-23T05:13:13.662Z,9.87
2023-04-23T05:14:13.646Z,9.90
2023-04-23T05:15:13.605Z,9.81
2023-04-23T05:16:13.627Z,9.81
2023-04-23T05:17:13.577Z,9.83
2023-04-23T05:18:13.610Z,9.78
2023-04-23T05:19:13.550Z,9.75
2023-04-23T05:20:13.532Z,9.91
2023-04-23T05:21:13.513Z,9.81
2023-04-23T05:22:13.502Z,9.72
2023-04-23T05:23:13.480Z,9.69
2023-04-23T05:24:13.489Z,9.58
2023-04-23T05:25:13.460Z,9.74
2023-04-23T05:26:13.440Z,9.71
2023-04-23T05:27:13.460Z,9.72
2023-04-23T05:28:13.404Z,9.69
2023-04-23T05:29:13.410Z,9.78
2023-04-23T05:30:13.375Z,9.84
2023-04-23T05:31:13.353Z,9.93
2023-04-23T05:32:13.365Z,9.78
2023-04-23T05:33:13.316Z,9.91
2023-04-23T05:34:13.320Z,9.96
2023-04-23T05:35:13.285Z,9.87
2023-04-23T05:36:13.316Z,9.96
2023-04-23T05:37:13.258Z,9.90
2023-04-23T05:38:13.240Z,9.93
2023-04-23T05:39:13.220Z,9.89
2023-04-23T05:40:13.239Z,9.86
2023-04-23T05:41:13.188Z,9.78
2023-04-23T05:42:13.183Z,9.83
2023-04-23T05:43:13.169Z,9.71
2023-04-23T05:44:13.149Z,9.74
2023-04-23T05:45:13.155Z,9.76
2023-04-23T05:46:13.174Z,9.68
2023-04-23T05:47:13.090Z,9.71
2023-04-23T05:48:13.069Z,9.69
2023-04-23T05:49:13.061Z,9.69
2023-04-23T05:50:13.096Z,9.66
2023-04-23T05:51:13.026Z,9.57
2023-04-23T05:52:13.030Z,9.58
2023-04-23T05:53:12.992Z,9.64
2023-04-23T05:54:12.974Z,9.61
2023-04-23T05:55:12.959Z,9.65
2023-04-23T05:56:12.950Z,9.71
2023-04-23T05:57:12.926Z,9.66
2023-04-23T05:58:12.925Z,9.76
2023-04-23T05:59:12.912Z,9.68
2023-04-23T06:00:12.881Z,9.79
2023-04-23T06:01:12.876Z,9.86
2023-04-23T06:02:12.907Z,9.89
2023-04-23T06:03:12.990Z,9.84
2023-04-23T06:04:12.956Z,9.87
2023-04-23T06:05:12.936Z,9.94
2023-04-23T06:06:12.791Z,9.99
2023-04-23T06:07:12.766Z,10.04
2023-04-23T06:08:12.813Z,10.04
2023-04-23T06:09:12.734Z,10.01
2023-04-23T06:10:12.827Z,10.11
2023-04-23T06:11:12.706Z,10.15
2023-04-23T06:12:12.686Z,10.09
2023-04-23T06:13:12.687Z,10.11
2023-04-23T06:14:12.656Z,10.08
2023-04-23T06:15:12.652Z,10.22
2023-04-23T06:16:12.664Z,10.23
2023-04-23T06:17:12.614Z,10.22
2023-04-23T06:18:12.631Z,10.27
2023-04-23T06:19:12.681Z,10.25
2023-04-23T06:20:12.594Z,10.26
2023-04-23T06:21:12.557Z,10.32
2023-04-23T06:22:12.531Z,10.30
2023-04-23T06:23:12.513Z,10.29
2023-04-23T06:24:12.568Z,10.34
2023-04-23T06:25:12.603Z,10.41
2023-04-23T06:26:12.471Z,10.40
2023-04-23T06:27:12.462Z,10.41
2023-04-23T06:28:12.433Z,10.34
2023-04-23T06:29:12.423Z,10.34
2023-04-23T06:30:12.428Z,10.36
2023-04-23T06:31:12.441Z,10.42
2023-04-23T06:32:12.372Z,10.53
2023-04-23T06:33:12.356Z,10.36
2023-04-23T06:34:12.337Z,10.55
2023-04-23T06:35:12.348Z,10.44
2023-04-23T06:36:12.333Z,10.51
2023-04-23T06:37:12.291Z,10.48
2023-04-23T06:38:12.280Z,10.55
2023-04-23T06:39:12.271Z,10.60
2023-04-23T06:40:12.244Z,10.66
2023-04-23T06:41:12.254Z,10.71
2023-04-23T06:42:12.212Z,10.68
2023-04-23T06:43:12.205Z,10.74
2023-04-23T06:44:12.178Z,10.78
2023-04-23T06:45:12.164Z,10.91
2023-04-23T06:46:12.213Z,10.89
2023-04-23T06:47:12.304Z,10.99
2023-04-23T06:48:12.188Z,11.11
2023-04-23T06:49:12.106Z,11.14
2023-04-23T06:50:12.102Z,11.24
2023-04-23T06:51:12.077Z,11.27
2023-04-23T06:52:12.099Z,11.28
2023-04-23T06:53:12.042Z,11.29
2023-04-23T06:54:12.031Z,11.36
2023-04-23T06:55:12.012Z,11.33
2023-04-23T06:56:11.999Z,11.40
2023-04-23T06:57:11.998Z,11.32
2023-04-23T06:58:12.784Z,11.32
2023-04-23T06:59:11.950Z,11.44
2023-04-23T07:00:11.962Z,11.46
2023-04-23T07:01:11.965Z,11.64
2023-04-23T07:02:11.946Z,11.69
2023-04-23T07:03:12.003Z,11.69
2023-04-23T07:04:11.899Z,11.70
2023-04-23T07:05:11.869Z,11.64
2023-04-23T07:06:12.042Z,11.67
2023-04-23T07:07:11.848Z,11.67
2023-04-23T07:08:11.860Z,11.64
2023-04-23T07:09:11.819Z,11.60
2023-04-23T07:10:11.808Z,11.55
2023-04-23T07:11:11.791Z,11.54
2023-04-23T07:12:11.786Z,11.51
2023-04-23T07:13:11.790Z,11.60
2023-04-23T07:14:11.751Z,11.64
2023-04-23T07:15:11.774Z,11.54
2023-04-23T07:16:11.850Z,11.62
2023-04-23T07:17:11.706Z,11.55
2023-04-23T07:18:11.722Z,11.58
2023-04-23T07:19:11.963Z,11.47
2023-04-23T07:20:11.749Z,11.47
2023-04-23T07:21:11.648Z,11.54
2023-04-23T07:22:11.635Z,11.47
2023-04-23T07:23:11.662Z,11.44
2023-04-23T07:24:11.610Z,11.51
2023-04-23T07:25:11.599Z,11.55
2023-04-23T07:26:11.580Z,11.58
2023-04-23T07:27:11.565Z,11.67
2023-04-23T07:28:11.552Z,11.69
2023-04-23T07:29:11.568Z,11.78
2023-04-23T07:30:11.528Z,11.75
2023-04-23T07:31:11.515Z,11.85
2023-04-23T07:32:11.699Z,11.86
2023-04-23T07:33:11.480Z,11.94
2023-04-23T07:34:11.496Z,11.91
2023-04-23T07:35:11.540Z,12.01
2023-04-23T07:36:11.496Z,11.96
2023-04-23T07:37:11.424Z,11.96
2023-04-23T07:38:11.404Z,12.04
2023-04-23T07:39:11.390Z,12.07
2023-04-23T07:40:11.449Z,12.16
2023-04-23T07:41:11.592Z,12.19
2023-04-23T07:42:11.351Z,12.14
2023-04-23T07:43:11.335Z,12.16
2023-04-23T07:44:11.333Z,12.16
2023-04-23T07:45:11.310Z,12.23
2023-04-23T07:46:11.350Z,12.31
2023-04-23T07:47:11.314Z,12.32
2023-04-23T07:48:11.263Z,12.39
2023-04-23T07:49:11.249Z,12.45
2023-04-23T07:50:11.264Z,12.50
2023-04-23T07:51:11.230Z,12.52
2023-04-23T07:52:11.253Z,12.64
2023-04-23T07:53:11.195Z,12.68
2023-04-23T07:54:11.181Z,12.64
2023-04-23T07:55:11.170Z,12.72
2023-04-23T07:56:11.152Z,12.72
2023-04-23T07:57:11.138Z,12.79
2023-04-23T07:58:11.153Z,12.89
2023-04-23T07:59:11.106Z,12.96
2023-04-23T08:00:11.097Z,13.05
2023-04-23T08:01:11.081Z,13.19
2023-04-23T08:02:11.174Z,13.25
2023-04-23T08:03:11.201Z,13.36
2023-04-23T08:04:11.322Z,13.39
2023-04-23T08:05:11.109Z,13.55
2023-04-23T08:06:11.017Z,13.60
2023-04-23T08:07:11.015Z,13.55
2023-04-23T08:08:11.019Z,13.67
2023-04-23T08:09:10.977Z,13.57
2023-04-23T08:10:10.975Z,13.73
2023-04-23T08:11:10.955Z,13.77
2023-04-23T08:12:10.941Z,13.73
2023-04-23T08:13:10.954Z,13.81
2023-04-23T08:14:10.925Z,13.88
2023-04-23T08:15:10.899Z,13.95
2023-04-23T08:16:10.901Z,13.87
2023-04-23T08:17:10.872Z,14.00
2023-04-23T08:18:10.925Z,13.96
2023-04-23T08:19:10.847Z,14.06
2023-04-23T08:20:10.835Z,14.07
2023-04-23T08:21:10.828Z,14.07
2023-04-23T08:22:10.822Z,14.15
2023-04-23T08:23:10.818Z,14.28
2023-04-23T08:24:10.809Z,14.22
2023-04-23T08:25:10.826Z,14.27
2023-04-23T08:26:10.762Z,14.25
2023-04-23T08:27:10.763Z,14.27
2023-04-23T08:28:10.738Z,14.15
2023-04-23T08:29:11.690Z,14.12
2023-04-23T08:30:10.710Z,14.18
2023-04-23T08:31:22.809Z,14.21
2023-04-23T08:32:10.755Z,14.28
2023-04-23T08:33:10.728Z,14.36
2023-04-23T08:34:10.661Z,14.46
2023-04-23T08:35:10.673Z,14.52
2023-04-23T08:36:10.668Z,14.45
2023-04-23T08:37:19.641Z,14.52
2023-04-23T08:38:10.613Z,14.50
2023-04-23T08:39:10.611Z,14.55
2023-04-23T08:40:10.625Z,14.55
2023-04-23T08:41:10.585Z,14.52
2023-04-23T08:42:10.579Z,14.60
2023-04-23T08:43:10.557Z,14.73
2023-04-23T08:44:10.544Z,14.80
2023-04-23T08:45:10.570Z,14.91
2023-04-23T08:46:10.527Z,15.06
2023-04-23T08:47:10.522Z,15.10
2023-04-23T08:48:10.555Z,15.10
2023-04-23T08:49:10.524Z,15.10
2023-04-23T08:50:10.480Z,15.02
2023-04-23T08:51:10.488Z,14.89
2023-04-23T08:52:10.483Z,14.86
2023-04-23T08:53:10.447Z,14.84
2023-04-23T08:54:10.441Z,14.94
2023-04-23T08:55:10.458Z,14.86
2023-04-23T08:56:10.415Z,14.94
2023-04-23T08:57:10.416Z,14.89
2023-04-23T08:58:10.423Z,15.03
2023-04-23T08:59:10.401Z,15.07
2023-04-23T09:00:10.385Z,15.06
2023-04-23T09:01:10.419Z,15.03
2023-04-23T09:02:10.526Z,15.07
2023-04-23T09:03:10.543Z,14.91
2023-04-23T09:04:10.354Z,14.98
2023-04-23T09:05:10.334Z,14.91
2023-04-23T09:06:10.364Z,14.92
2023-04-23T09:07:10.319Z,14.94
2023-04-23T09:08:10.305Z,14.99
2023-04-23T09:09:10.293Z,15.13
2023-04-23T09:10:10.297Z,15.19
2023-04-23T09:11:10.284Z,15.34
2023-04-23T09:12:10.300Z,15.36
2023-04-23T09:13:10.248Z,15.46
2023-04-23T09:14:10.235Z,15.47
2023-04-23T09:15:10.264Z,15.46
2023-04-23T09:16:10.280Z,15.47
2023-04-23T09:17:10.206Z,15.39
2023-04-23T09:18:10.224Z,15.28
2023-04-23T09:19:10.193Z,14.91
2023-04-23T09:20:10.179Z,14.91
2023-04-23T09:21:10.164Z,14.83
2023-04-23T09:22:10.206Z,14.81
2023-04-23T09:23:10.141Z,14.84
2023-04-23T09:24:10.255Z,14.88
2023-04-23T09:25:10.123Z,14.83
2023-04-23T09:26:10.111Z,14.86
2023-04-23T09:27:10.160Z,14.80
2023-04-23T09:28:10.089Z,14.78
2023-04-23T09:29:10.079Z,14.84
2023-04-23T09:30:10.096Z,14.88
2023-04-23T09:31:10.054Z,14.77
2023-04-23T09:32:10.197Z,14.89
2023-04-23T09:33:10.091Z,14.88
2023-04-23T09:34:10.023Z,14.94
2023-04-23T09:35:10.025Z,15.07
2023-04-23T09:36:09.998Z,15.03
2023-04-23T09:37:09.992Z,15.01
2023-04-23T09:38:09.979Z,14.92
2023-04-23T09:39:09.970Z,14.94
2023-04-23T09:40:09.979Z,15.01
2023-04-23T09:41:09.945Z,14.92
2023-04-23T09:42:09.945Z,14.88
2023-04-23T09:43:09.935Z,14.81
2023-04-23T09:44:09.909Z,14.80
2023-04-23T09:45:09.919Z,14.77
2023-04-23T09:46:09.894Z,14.81
2023-04-23T09:47:09.908Z,14.81
2023-04-23T09:48:09.920Z,14.75
2023-04-23T09:49:09.860Z,14.84
2023-04-23T09:50:09.876Z,14.84
2023-04-23T09:51:09.830Z,14.80
2023-04-23T09:52:09.822Z,14.81
2023-04-23T09:53:09.824Z,14.78
2023-04-23T09:54:09.792Z,14.81
2023-04-23T09:55:09.792Z,14.89
2023-04-23T09:56:09.856Z,14.80
2023-04-23T09:57:09.759Z,14.84
2023-04-23T09:58:09.754Z,15.09
2023-04-23T09:59:09.741Z,15.28
2023-04-23T10:00:14.413Z,15.41
2023-04-23T10:01:09.773Z,15.59
2023-04-23T10:02:09.790Z,15.62
2023-04-23T10:03:10.101Z,15.72
2023-04-23T10:04:09.900Z,15.80
2023-04-23T10:05:22.806Z,15.86
2023-04-23T10:06:17.245Z,15.84
2023-04-23T10:08:11.400Z,15.92
2023-04-23T10:09:09.644Z,15.96
2023-04-23T10:10:09.654Z,16.14
2023-04-23T10:11:19.969Z,16.12
2023-04-23T10:12:20.756Z,16.07
2023-04-23T10:13:09.594Z,16.12
2023-04-23T10:14:09.586Z,16.24
2023-04-23T10:15:09.602Z,16.31
2023-04-23T10:16:21.641Z,16.31
2023-04-23T10:17:09.702Z,16.43
2023-04-23T10:18:09.550Z,16.58
2023-04-23T10:19:09.548Z,16.60
2023-04-23T10:20:09.536Z,16.63
2023-04-23T10:21:09.596Z,16.60
2023-04-23T10:23:09.530Z,16.85
2023-04-23T10:24:09.509Z,16.91
2023-04-23T10:25:09.509Z,16.91
2023-04-23T10:26:09.496Z,17.00
2023-04-23T10:27:21.938Z,17.00
2023-04-23T10:28:09.480Z,17.15
2023-04-23T10:29:09.476Z,17.21
2023-04-23T10:30:09.467Z,17.16
2023-04-23T10:31:09.540Z,17.26
2023-04-23T10:32:09.460Z,17.15
2023-04-23T10:33:18.830Z,17.11
2023-04-23T10:34:09.522Z,17.14
2023-04-23T10:35:09.438Z,17.19
2023-04-23T10:36:09.472Z,17.21
2023-04-23T10:37:09.434Z,17.08
2023-04-23T10:38:09.427Z,17.16
2023-04-23T10:39:09.549Z,17.26
2023-04-23T10:40:09.402Z,17.30
2023-04-23T10:41:09.401Z,17.21
2023-04-23T10:42:09.444Z,17.22
2023-04-23T10:43:09.393Z,17.08
2023-04-23T10:44:09.386Z,17.19
2023-04-23T10:46:09.381Z,17.14
2023-04-23T10:47:09.371Z,17.34
2023-04-23T10:48:09.410Z,17.31
2023-04-23T10:49:09.440Z,17.08
2023-04-23T10:50:09.373Z,17.16
2023-04-23T10:51:41.998Z,17.01
2023-04-23T10:52:19.632Z,17.07
2023-04-23T10:53:09.338Z,16.94
2023-04-23T10:54:09.337Z,16.91
2023-04-23T10:55:09.327Z,16.89
2023-04-23T10:56:09.292Z,16.94
2023-04-23T10:57:09.290Z,16.83
2023-04-23T10:58:09.280Z,16.98
2023-04-23T10:59:09.278Z,17.00
2023-04-23T11:00:09.281Z,17.15
2023-04-23T11:01:09.258Z,17.15
2023-04-23T11:02:09.390Z,17.16
2023-04-23T11:03:09.478Z,17.01
2023-04-23T11:04:09.361Z,17.00
2023-04-23T11:05:09.223Z,17.06
2023-04-23T11:06:09.232Z,17.01
2023-04-23T11:07:09.208Z,16.93
2023-04-23T11:08:18.799Z,16.88
2023-04-23T11:09:09.199Z,16.91
2023-04-23T11:10:09.182Z,17.00
2023-04-23T11:11:09.194Z,17.11
2023-04-23T11:12:09.170Z,17.41
2023-04-23T11:13:09.163Z,17.55
2023-04-23T11:14:09.173Z,17.82
2023-04-23T11:15:09.149Z,17.74
2023-04-23T11:16:09.169Z,17.99
2023-04-23T11:17:09.139Z,18.11
2023-04-23T11:18:09.192Z,18.14
2023-04-23T11:19:09.251Z,18.10
2023-04-23T11:20:09.110Z,18.02
2023-04-23T11:21:09.091Z,18.00
2023-04-23T11:22:09.077Z,18.08
2023-04-23T11:23:09.071Z,17.97
2023-04-23T11:24:09.117Z,17.82
2023-04-23T11:25:09.073Z,17.78
2023-04-23T11:26:09.065Z,17.64
2023-04-23T11:27:09.182Z,17.52
2023-04-23T11:28:09.038Z,17.31
2023-04-23T11:29:09.020Z,17.19
2023-04-23T11:30:09.033Z,17.18
2023-04-23T11:31:09.030Z,17.14
2023-04-23T11:32:09.016Z,17.18
2023-04-23T11:33:09.019Z,17.14
2023-04-23T11:34:08.973Z,16.96
2023-04-23T11:35:10.358Z,17.04
2023-04-23T11:36:08.981Z,17.08
2023-04-23T11:37:08.961Z,17.03
2023-04-23T11:38:08.950Z,17.08
2023-04-23T11:39:08.940Z,17.07
2023-04-23T11:40:08.968Z,17.03
2023-04-23T11:41:08.913Z,17.06
2023-04-23T11:42:08.901Z,17.12
2023-04-23T11:43:08.893Z,17.11
2023-04-23T11:44:08.885Z,17.28
2023-04-23T11:45:08.874Z,17.55
2023-04-23T11:46:08.974Z,17.48
2023-04-23T11:47:08.866Z,17.55
2023-04-23T11:48:08.846Z,17.74
2023-04-23T11:49:08.836Z,17.72
2023-04-23T11:50:08.826Z,17.81
2023-04-23T11:51:08.844Z,17.78
2023-04-23T11:52:08.831Z,17.74
2023-04-23T11:53:08.840Z,17.75
2023-04-23T11:54:08.786Z,17.86
2023-04-23T11:55:08.782Z,17.96
2023-04-23T11:56:08.767Z,18.07
2023-04-23T11:57:08.784Z,17.92
2023-04-23T11:58:08.751Z,17.82
2023-04-23T11:59:08.761Z,17.82
2023-04-23T12:00:08.731Z,18.03
2023-04-23T12:01:08.720Z,18.27
2023-04-23T12:02:08.777Z,18.42
2023-04-23T12:03:08.812Z,18.65
2023-04-23T12:04:08.972Z,18.94
2023-04-23T12:05:08.693Z,19.21
2023-04-23T12:06:08.680Z,18.98
2023-04-23T12:07:23.045Z,18.91
2023-04-23T12:08:08.670Z,18.78
2023-04-23T12:09:08.656Z,18.66
2023-04-23T12:10:08.677Z,18.39
2023-04-23T12:11:08.652Z,18.37
2023-04-23T12:12:08.632Z,18.35
2023-04-23T12:13:08.624Z,18.26
2023-04-23T12:14:08.654Z,18.10
2023-04-23T12:15:08.605Z,17.79
2023-04-23T12:16:10.871Z,17.75
2023-04-23T12:17:08.601Z,17.77
2023-04-23T12:18:08.586Z,17.72
2023-04-23T12:19:08.610Z,17.62
2023-04-23T12:20:08.568Z,17.56
2023-04-23T12:21:08.574Z,17.49
2023-04-23T12:22:08.610Z,17.44
2023-04-23T12:23:08.560Z,17.38
2023-04-23T12:24:08.547Z,17.18
2023-04-23T12:25:08.532Z,17.12
2023-04-23T12:26:08.524Z,17.03
2023-04-23T12:27:08.502Z,17.03
2023-04-23T12:28:08.494Z,16.93
2023-04-23T12:29:08.491Z,16.89
2023-04-23T12:30:08.516Z,16.64
2023-04-23T12:31:08.488Z,16.50
2023-04-23T12:32:08.455Z,16.35
2023-04-23T12:33:08.448Z,16.27
2023-04-23T12:34:08.463Z,16.31
2023-04-23T12:35:08.477Z,16.31
2023-04-23T12:36:08.416Z,16.17
2023-04-23T12:37:08.410Z,16.04
2023-04-23T12:38:08.410Z,16.09
2023-04-23T12:39:08.395Z,16.04
2023-04-23T12:40:08.382Z,16.05
2023-04-23T12:41:08.408Z,16.00
2023-04-23T12:42:08.356Z,16.00
2023-04-23T12:43:08.346Z,16.08
2023-04-23T12:44:08.364Z,16.11
2023-04-23T12:45:08.336Z,16.14
2023-04-23T12:46:08.393Z,16.23
2023-04-23T12:47:08.330Z,16.27
2023-04-23T12:48:08.290Z,16.28
2023-04-23T12:49:08.290Z,16.31
2023-04-23T12:50:08.385Z,16.28
2023-04-23T12:51:08.257Z,16.30
2023-04-23T12:52:08.280Z,16.33
2023-04-23T12:53:08.237Z,16.34
2023-04-23T12:54:08.226Z,16.31
2023-04-23T12:55:08.233Z,16.38
2023-04-23T12:56:08.205Z,16.46
2023-04-23T12:57:08.195Z,16.49
2023-04-23T12:58:08.189Z,16.50
2023-04-23T12:59:08.167Z,16.68
2023-04-23T13:00:08.200Z,16.73
2023-04-23T13:01:08.173Z,16.93
2023-04-23T13:02:08.259Z,17.19